createdAt,value
2023-04-19T00:02:21.245Z,7.33
2023-04-19T00:04:48.181Z,6.63
2023-04-19T00:07:15.027Z,7.03
2023-04-19T00:09:41.826Z,6.97
2023-04-19T00:12:08.574Z,6.73
2023-04-19T00:14:35.479Z,6.93
2023-04-19T00:17:02.360Z,7.10
2023-04-19T00:19:29.180Z,6.60
2023-04-19T00:21:56.037Z,7.17
2023-04-19T00:24:22.756Z,7.03
2023-04-19T00:26:49.479Z,7.70
2023-04-19T00:29:16.182Z,7.00
2023-04-19T00:31:42.941Z,7.07
2023-04-19T00:34:09.648Z,7.20
2023-04-19T00:36:36.427Z,7.13
2023-04-19T00:39:03.419Z,6.50
2023-04-19T00:41:30.221Z,7.83
2023-04-19T00:43:56.941Z,8.30
2023-04-19T00:46:24.290Z,7.83
2023-04-19T00:48:51.387Z,7.70
2023-04-19T00:51:18.296Z,7.53
2023-04-19T00:53:45.765Z,7.53
2023-04-19T00:56:14.776Z,7.90
2023-04-19T00:58:41.732Z,7.93
2023-04-19T01:01:08.491Z,8.10
2023-04-19T01:03:36.899Z,8.00
2023-04-19T01:06:03.915Z,7.50
2023-04-19T01:08:30.810Z,8.13
2023-04-19T01:10:57.929Z,8.07
2023-04-19T01:13:25.041Z,8.33
2023-04-19T01:15:52.002Z,8.00
2023-04-19T01:18:19.487Z,7.87
2023-04-19T01:20:46.315Z,8.00
2023-04-19T01:23:13.091Z,7.60
2023-04-19T01:25:39.830Z,8.53
2023-04-19T01:28:06.640Z,7.80
2023-04-19T01:30:34.399Z,8.30
2023-04-19T01:33:01.158Z,7.87
2023-04-19T01:35:27.905Z,7.90
2023-04-19T01:37:56.254Z,7.40
2023-04-19T01:40:25.280Z,8.40
2023-04-19T01:42:52.650Z,7.80
2023-04-19T01:45:19.675Z,7.60
2023-04-19T01:47:46.504Z,7.17
2023-04-19T01:50:13.329Z,7.50
2023-04-19T01:52:40.179Z,7.17
2023-04-19T01:55:07.160Z,6.70
2023-04-19T01:57:33.979Z,7.70
2023-04-19T02:00:01.749Z,6.63
2023-04-19T02:02:28.542Z,5.47
2023-04-19T02:04:55.447Z,5.47
2023-04-19T02:07:22.131Z,6.00
2023-04-19T02:09:48.851Z,5.73
2023-04-19T02:12:16.030Z,4.93
2023-04-19T02:14:42.690Z,5.40
2023-04-19T02:17:09.435Z,5.70
2023-04-19T02:19:36.276Z,5.70
2023-04-19T02:22:03.147Z,5.60
2023-04-19T02:24:29.922Z,4.97
2023-04-19T02:26:56.601Z,5.13
2023-04-19T02:29:23.332Z,5.13
2023-04-19T02:31:50.517Z,4.60
2023-04-19T02:34:17.925Z,5.20
2023-04-19T02:36:44.798Z,4.70
2023-04-19T02:39:12.273Z,4.50
2023-04-19T02:41:39.426Z,5.30
2023-04-19T02:44:06.158Z,4.10
2023-04-19T02:46:32.965Z,5.47
2023-04-19T02:49:01.138Z,4.70
2023-04-19T02:51:27.923Z,5.00
2023-04-19T02:53:54.651Z,4.80
2023-04-19T02:56:21.359Z,4.97
2023-04-19T02:58:48.073Z,4.60
2023-04-19T03:01:14.789Z,4.87
2023-04-19T03:03:41.694Z,5.00
2023-04-19T03:06:09.060Z,4.53
2023-04-19T03:08:36.294Z,5.23
2023-04-19T03:11:03.081Z,4.47
2023-04-19T03:13:29.774Z,4.53
2023-04-19T03:15:56.520Z,4.60
2023-04-19T03:18:23.246Z,4.43
2023-04-19T03:20:49.913Z,4.10
2023-04-19T03:23:16.653Z,4.07
2023-04-19T03:25:43.821Z,4.30
2023-04-19T03:28:10.572Z,4.13
2023-04-19T03:30:37.310Z,4.27
2023-04-19T03:33:04.184Z,4.83
2023-04-19T03:35:32.256Z,4.50
2023-04-19T03:37:59.110Z,4.43
2023-04-19T03:40:25.910Z,4.67
2023-04-19T03:42:52.579Z,3.90
2023-04-19T03:45:19.569Z,4.07
2023-04-19T03:47:46.339Z,4.10
2023-04-19T03:50:13.166Z,4.07
2023-04-19T03:52:39.925Z,4.10
2023-04-19T03:55:07.179Z,4.67
2023-04-19T03:57:33.890Z,3.87
2023-04-19T04:00:01.387Z,4.43
2023-04-19T04:02:28.157Z,4.07
2023-04-19T04:04:55.432Z,3.57
2023-04-19T04:07:23.204Z,4.43
2023-04-19T04:09:50.252Z,4.30
2023-04-19T04:12:17.053Z,4.20
2023-04-19T04:14:44.015Z,4.23
2023-04-19T04:17:11.182Z,4.00
2023-04-19T04:19:37.921Z,3.80
2023-04-19T04:22:06.082Z,4.30
2023-04-19T04:24:38.813Z,3.90
2023-04-19T04:27:05.815Z,4.10
2023-04-19T04:29:33.316Z,4.60
2023-04-19T04:32:00.189Z,4.20
2023-04-19T04:34:26.982Z,4.87
2023-04-19T04:36:54.057Z,4.53
2023-04-19T04:39:20.964Z,4.30
2023-04-19T04:41:49.606Z,3.40
2023-04-19T04:44:16.694Z,4.17
2023-04-19T04:46:43.482Z,4.93
2023-04-19T04:49:10.170Z,4.87
2023-04-19T04:51:37.429Z,4.20
2023-04-19T04:54:05.480Z,3.93
2023-04-19T04:56:32.200Z,4.73
2023-04-19T04:58:59.298Z,4.53
2023-04-19T05:01:26.465Z,3.97
2023-04-19T05:03:53.738Z,4.07
2023-04-19T05:06:20.454Z,5.10
2023-04-19T05:08:47.222Z,4.60
2023-04-19T05:11:14.442Z,4.60
2023-04-19T05:13:41.221Z,4.20
2023-04-19T05:16:08.125Z,4.10
2023-04-19T05:18:34.832Z,4.43
2023-04-19T05:21:01.662Z,4.30
2023-04-19T05:23:28.403Z,4.13
2023-04-19T05:25:55.185Z,4.77
2023-04-19T05:28:21.959Z,4.40
2023-04-19T05:30:48.701Z,4.80
2023-04-19T05:33:15.430Z,5.40
2023-04-19T05:35:42.136Z,4.30
2023-04-19T05:38:08.860Z,4.40
2023-04-19T05:40:35.860Z,5.00
2023-04-19T05:43:02.683Z,4.23
2023-04-19T05:45:29.387Z,4.60
2023-04-19T05:47:56.267Z,4.20
2023-04-19T05:50:23.084Z,3.90
2023-04-19T05:52:49.810Z,4.13
2023-04-19T05:55:18.038Z,4.13
2023-04-19T05:57:44.906Z,4.60
2023-04-19T06:00:12.071Z,4.27
2023-04-19T06:02:39.015Z,4.07
2023-04-19T06:05:09.868Z,3.60
2023-04-19T06:07:40.562Z,3.60
2023-04-19T06:10:15.447Z,3.90
2023-04-19T06:12:42.152Z,3.87
2023-04-19T06:15:09.371Z,3.80
2023-04-19T06:17:36.062Z,3.47
2023-04-19T06:20:05.930Z,3.50
2023-04-19T06:22:32.699Z,3.50
2023-04-19T06:24:59.491Z,3.70
2023-04-19T06:27:26.211Z,3.57
2023-04-19T06:29:53.051Z,3.87
2023-04-19T06:32:19.838Z,4.33
2023-04-19T06:34:46.578Z,3.50
2023-04-19T06:37:14.763Z,3.70
2023-04-19T06:39:41.551Z,3.60
2023-04-19T06:42:08.382Z,3.53
2023-04-19T06:44:35.127Z,3.77
2023-04-19T06:47:01.831Z,4.07
2023-04-19T06:49:28.707Z,3.50
2023-04-19T06:51:55.538Z,3.70
2023-04-19T06:54:22.291Z,3.70
2023-04-19T06:56:50.140Z,4.10
2023-04-19T06:59:19.516Z,3.60
2023-04-19T07:01:47.326Z,3.20
2023-04-19T07:04:14.898Z,3.40
2023-04-19T07:06:42.330Z,3.60
2023-04-19T07:09:09.087Z,3.87
2023-04-19T07:11:35.791Z,3.80
2023-04-19T07:14:03.014Z,3.20
2023-04-19T07:16:30.213Z,3.40
2023-04-19T07:18:57.874Z,3.30
2023-04-19T07:21:32.826Z,3.40
2023-04-19T07:24:00.167Z,3.53
2023-04-19T07:26:27.192Z,3.30
2023-04-19T07:28:53.977Z,3.50
2023-04-19T07:31:21.175Z,3.50
2023-04-19T07:33:48.033Z,3.40
2023-04-19T07:36:14.780Z,3.97
2023-04-19T07:38:41.671Z,3.90
2023-04-19T07:41:09.083Z,3.70
2023-04-19T07:43:37.298Z,3.80
2023-04-19T07:46:16.397Z,4.00
2023-04-19T07:48:43.243Z,3.47
2023-04-19T07:51:14.734Z,3.67
2023-04-19T07:53:41.945Z,3.60
2023-04-19T07:56:11.003Z,3.90
2023-04-19T07:58:39.674Z,3.70
2023-04-19T08:01:07.108Z,3.77
2023-04-19T08:03:34.637Z,3.97
2023-04-19T08:06:02.800Z,4.00
2023-04-19T08:08:29.484Z,3.33
2023-04-19T08:10:56.261Z,4.00
2023-04-19T08:13:23.473Z,3.83
2023-04-19T08:16:27.226Z,4.27
2023-04-19T08:18:36.900Z,3.60
2023-04-19T08:21:03.957Z,3.73
2023-04-19T08:23:41.187Z,4.10
2023-04-19T08:26:11.883Z,4.70
2023-04-19T08:28:38.609Z,3.80
2023-04-19T08:31:08.959Z,4.03
2023-04-19T08:33:35.864Z,3.27
2023-04-19T08:36:02.653Z,3.33
2023-04-19T08:38:29.463Z,3.80
2023-04-19T08:40:56.181Z,3.47
2023-04-19T08:43:25.474Z,3.60
2023-04-19T08:45:54.065Z,3.77
2023-04-19T08:48:22.236Z,3.63
2023-04-19T08:51:04.044Z,3.50
2023-04-19T08:53:34.375Z,3.80
2023-04-19T08:56:10.611Z,3.07
2023-04-19T08:58:58.019Z,3.63
2023-04-19T09:01:35.664Z,3.50
2023-04-19T09:04:26.318Z,5.30
2023-04-19T09:06:55.428Z,3.43
2023-04-19T09:12:00.571Z,3.60
2023-04-19T09:14:29.158Z,3.40
2023-04-19T09:17:17.711Z,3.27
2023-04-19T09:19:49.282Z,3.50
2023-04-19T09:22:16.481Z,3.07
2023-04-19T09:27:13.957Z,3.20
2023-04-19T09:29:40.831Z,4.80
2023-04-19T09:32:07.748Z,3.30
2023-04-19T09:34:34.499Z,3.37
2023-04-19T09:37:21.490Z,3.30
2023-04-19T09:39:54.824Z,3.20
2023-04-19T09:42:42.310Z,3.07
2023-04-19T09:47:38.825Z,3.20
2023-04-19T09:50:22.038Z,3.20
2023-04-19T09:52:52.351Z,3.40
2023-04-19T09:55:26.940Z,3.20
2023-04-19T09:57:55.227Z,3.27
2023-04-19T10:00:23.110Z,3.13
2023-04-19T10:02:58.013Z,2.90
2023-04-19T10:05:26.439Z,3.13
2023-04-19T10:07:59.534Z,3.07
2023-04-19T10:10:41.463Z,3.17
2023-04-19T10:15:51.256Z,3.00
2023-04-19T10:18:22.914Z,3.03
2023-04-19T10:21:01.520Z,3.47
2023-04-19T10:23:29.269Z,3.20
2023-04-19T10:25:59.563Z,2.60
2023-04-19T10:28:29.881Z,3.37
2023-04-19T10:31:04.011Z,2.80
2023-04-19T10:33:34.669Z,3.13
2023-04-19T10:36:02.067Z,3.27
2023-04-19T10:38:49.330Z,2.53
2023-04-19T10:41:18.469Z,3.43
2023-04-19T10:43:55.653Z,3.40
2023-04-19T10:46:22.409Z,3.00
2023-04-19T10:49:06.078Z,3.47
2023-04-19T10:51:36.761Z,3.73
2023-04-19T10:54:30.899Z,3.17
2023-04-19T10:57:02.527Z,3.50
2023-04-19T10:59:33.980Z,3.17
2023-04-19T11:02:02.986Z,3.10
2023-04-19T11:04:32.798Z,3.00
2023-04-19T11:07:07.316Z,3.13
2023-04-19T11:09:45.211Z,3.20
2023-04-19T11:12:12.980Z,3.70
2023-04-19T11:14:40.750Z,3.47
2023-04-19T11:17:28.537Z,3.37
2023-04-19T11:19:55.648Z,3.43
2023-04-19T11:22:33.928Z,3.50
2023-04-19T11:25:20.357Z,3.30
2023-04-19T11:27:50.838Z,3.57
2023-04-19T11:30:22.755Z,3.30
2023-04-19T11:32:53.861Z,3.60
2023-04-19T11:35:25.711Z,4.20
2023-04-19T11:37:53.388Z,3.13
2023-04-19T11:40:21.811Z,3.37
2023-04-19T11:42:55.350Z,3.23
2023-04-19T11:45:33.084Z,3.50
2023-04-19T11:48:01.861Z,4.23
2023-04-19T11:50:38.449Z,3.50
2023-04-19T11:53:14.195Z,3.63
2023-04-19T11:55:48.918Z,3.13
2023-04-19T11:58:49.722Z,3.57
2023-04-19T12:01:19.918Z,3.20
2023-04-19T12:03:47.763Z,3.37
2023-04-19T12:06:18.305Z,2.90
2023-04-19T12:08:49.990Z,3.30
2023-04-19T12:11:19.059Z,3.10
2023-04-19T12:13:46.141Z,3.03
2023-04-19T12:16:13.739Z,3.10
2023-04-19T12:18:45.169Z,3.23
2023-04-19T12:21:25.326Z,3.27
2023-04-19T12:23:58.000Z,3.03
2023-04-19T12:26:26.918Z,2.77
2023-04-19T12:28:56.766Z,2.53
2023-04-19T12:31:23.916Z,2.40
2023-04-19T12:33:51.122Z,2.87
2023-04-19T12:36:17.922Z,3.63
2023-04-19T12:38:44.627Z,3.20
2023-04-19T12:41:11.576Z,2.70
2023-04-19T12:43:38.342Z,3.23
2023-04-19T12:46:05.610Z,2.77
2023-04-19T12:48:32.462Z,2.80
2023-04-19T12:50:59.216Z,2.80
2023-04-19T12:53:26.239Z,3.20
2023-04-19T12:55:52.977Z,3.07
2023-04-19T12:58:21.215Z,2.97
2023-04-19T13:00:48.047Z,2.50
2023-04-19T13:03:14.981Z,2.93
2023-04-19T13:05:41.775Z,2.83
2023-04-19T13:08:08.515Z,3.30
2023-04-19T13:10:35.367Z,3.07
2023-04-19T13:13:02.093Z,3.50
2023-04-19T13:15:29.569Z,2.50
2023-04-19T13:17:57.092Z,2.93
2023-04-19T13:20:23.857Z,3.00
2023-04-19T13:22:50.671Z,2.90
2023-04-19T13:25:17.401Z,3.37
2023-04-19T13:27:44.179Z,3.20
2023-04-19T13:30:11.291Z,3.07
2023-04-19T13:32:38.099Z,3.13
2023-04-19T13:35:05.437Z,3.00
2023-04-19T13:37:32.170Z,2.90
2023-04-19T13:40:10.626Z,3.43
2023-04-19T13:42:41.997Z,3.03
2023-04-19T13:45:09.888Z,3.27
2023-04-19T13:47:37.089Z,2.93
2023-04-19T13:50:04.062Z,2.77
2023-04-19T13:52:31.241Z,3.17
2023-04-19T13:54:58.010Z,3.63
2023-04-19T13:57:24.786Z,3.20
2023-04-19T13:59:51.532Z,3.97
2023-04-19T14:02:18.345Z,3.70
2023-04-19T14:04:45.271Z,3.30
2023-04-19T14:07:12.086Z,3.17
2023-04-19T14:09:38.976Z,3.50
2023-04-19T14:12:08.709Z,3.77
2023-04-19T14:14:35.440Z,3.23
2023-04-19T14:17:02.235Z,3.60
2023-04-19T14:19:28.922Z,3.63
2023-04-19T14:21:55.851Z,3.90
2023-04-19T14:24:22.586Z,3.40
2023-04-19T14:26:59.923Z,3.80
2023-04-19T14:29:36.385Z,4.20
2023-04-19T14:32:17.158Z,3.80
2023-04-19T14:34:50.123Z,3.77
2023-04-19T14:37:17.331Z,4.10
2023-04-19T14:39:47.587Z,3.77
2023-04-19T14:42:14.307Z,4.03
2023-04-19T14:44:41.219Z,4.00
2023-04-19T14:47:08.139Z,3.50
2023-04-19T14:49:34.966Z,3.73
2023-04-19T14:52:01.748Z,3.50
2023-04-19T14:54:28.973Z,4.37
2023-04-19T14:56:55.678Z,3.90
2023-04-19T14:59:22.459Z,4.20
2023-04-19T15:01:49.388Z,4.00
2023-04-19T15:04:16.592Z,4.50
2023-04-19T15:06:43.466Z,4.07
2023-04-19T15:09:10.403Z,4.70
2023-04-19T15:11:37.240Z,4.53
2023-04-19T15:14:03.995Z,4.83
2023-04-19T15:16:31.304Z,4.77
2023-04-19T15:18:58.057Z,4.83
2023-04-19T15:21:25.016Z,4.70
2023-04-19T15:23:51.789Z,4.67
2023-04-19T15:26:18.632Z,3.97
2023-04-19T15:28:45.349Z,4.90
2023-04-19T15:31:12.250Z,4.47
2023-04-19T15:33:39.215Z,4.80
2023-04-19T15:36:06.355Z,4.67
2023-04-19T15:38:33.391Z,4.57
2023-04-19T15:41:03.813Z,4.73
2023-04-19T15:43:31.560Z,4.77
2023-04-19T15:45:58.353Z,4.60
2023-04-19T15:48:25.197Z,4.73
2023-04-19T15:50:51.919Z,4.70
2023-04-19T15:53:18.744Z,4.10
2023-04-19T15:55:47.839Z,4.23
2023-04-19T15:58:15.273Z,4.90
2023-04-19T16:00:42.077Z,4.67
2023-04-19T16:03:12.421Z,4.57
2023-04-19T16:05:40.035Z,4.60
2023-04-19T16:08:08.954Z,4.77
2023-04-19T16:10:36.219Z,4.30
2023-04-19T16:13:06.047Z,5.10
2023-04-19T16:15:33.383Z,4.47
2023-04-19T16:18:00.321Z,4.50
2023-04-19T16:20:27.183Z,4.00
2023-04-19T16:22:53.951Z,4.50
2023-04-19T16:25:20.825Z,4.57
2023-04-19T16:27:47.812Z,3.77
2023-04-19T16:30:16.420Z,4.33
2023-04-19T16:32:43.861Z,4.03
2023-04-19T16:35:10.803Z,4.43
2023-04-19T16:37:37.659Z,3.60
2023-04-19T16:40:10.141Z,4.60
2023-04-19T16:42:38.134Z,4.50
2023-04-19T16:45:06.406Z,4.00
2023-04-19T16:47:34.684Z,3.90
2023-04-19T16:50:02.436Z,4.20
2023-04-19T16:52:31.179Z,4.13
2023-04-19T16:54:58.179Z,3.53
2023-04-19T16:57:24.968Z,4.30
2023-04-19T16:59:51.834Z,4.03
2023-04-19T17:02:18.871Z,3.53
2023-04-19T17:04:45.959Z,3.77
2023-04-19T17:07:12.891Z,3.80
2023-04-19T17:09:39.677Z,3.70
2023-04-19T17:12:06.600Z,4.47
2023-04-19T17:14:35.750Z,4.43
2023-04-19T17:17:02.735Z,4.97
2023-04-19T17:19:29.485Z,3.90
2023-04-19T17:21:56.458Z,4.60
2023-04-19T17:24:23.282Z,4.27
2023-04-19T17:26:50.199Z,4.10
2023-04-19T17:29:17.310Z,3.57
2023-04-19T17:31:44.796Z,4.20
2023-04-19T17:34:11.697Z,3.90
2023-04-19T17:36:38.444Z,3.97
2023-04-19T17:39:06.640Z,3.90
2023-04-19T17:41:33.778Z,3.63
2023-04-19T17:44:00.638Z,3.90
2023-04-19T17:46:27.500Z,3.90
2023-04-19T17:48:55.422Z,4.40
2023-04-19T17:51:22.182Z,3.93
2023-04-19T17:53:48.889Z,3.70
2023-04-19T17:56:15.632Z,3.93
2023-04-19T17:58:42.401Z,4.27
2023-04-19T18:01:10.414Z,3.80
2023-04-19T18:03:37.966Z,3.90
2023-04-19T18:06:05.089Z,4.33
2023-04-19T18:08:31.930Z,3.80
2023-04-19T18:10:58.728Z,3.90
2023-04-19T18:13:25.748Z,4.10
2023-04-19T18:15:52.531Z,5.23
2023-04-19T18:18:19.411Z,3.70
2023-04-19T18:20:46.230Z,4.33
2023-04-19T18:23:13.127Z,5.03
2023-04-19T18:25:39.925Z,4.60
2023-04-19T18:28:06.789Z,4.30
2023-04-19T18:30:33.832Z,4.50
2023-04-19T18:33:00.710Z,4.23
2023-04-19T18:35:27.536Z,4.30
2023-04-19T18:37:54.276Z,4.40
2023-04-19T18:40:21.202Z,5.10
2023-04-19T18:42:47.990Z,4.60
2023-04-19T18:45:14.921Z,5.23
2023-04-19T18:47:42.059Z,4.23
2023-04-19T18:50:09.512Z,4.60
2023-04-19T18:52:36.868Z,4.70
2023-04-19T18:55:05.137Z,4.70
2023-04-19T18:57:34.550Z,4.40
2023-04-19T19:00:02.196Z,4.80
2023-04-19T19:02:29.219Z,4.87
2023-04-19T19:05:00.589Z,4.53
2023-04-19T19:07:36.436Z,5.27
2023-04-19T19:10:16.996Z,5.03
2023-04-19T19:12:47.691Z,4.70
2023-04-19T19:15:15.001Z,4.87
2023-04-19T19:17:42.634Z,4.60
2023-04-19T19:20:10.088Z,5.13
2023-04-19T19:22:36.941Z,4.73
2023-04-19T19:25:04.160Z,4.93
2023-04-19T19:27:30.952Z,4.53
2023-04-19T19:29:58.856Z,5.07
2023-04-19T19:32:25.992Z,4.60
2023-04-19T19:35:00.158Z,4.17
2023-04-19T19:37:27.760Z,4.60
2023-04-19T19:39:56.356Z,3.80
2023-04-19T19:42:24.619Z,5.10
2023-04-19T19:44:55.458Z,4.70
2023-04-19T19:47:23.712Z,4.07
2023-04-19T19:50:34.986Z,5.87
2023-04-19T19:52:37.660Z,5.40
2023-04-19T19:55:04.738Z,4.80
2023-04-19T19:58:16.338Z,5.60
2023-04-19T20:00:42.094Z,6.10
2023-04-19T20:03:06.670Z,5.33
2023-04-19T20:05:34.095Z,6.00
2023-04-19T20:08:12.862Z,5.57
2023-04-19T20:10:41.717Z,7.10
2023-04-19T20:13:09.011Z,8.37
2023-04-19T20:15:37.697Z,6.20
2023-04-19T20:18:05.459Z,6.43
2023-04-19T20:20:32.722Z,6.77
2023-04-19T20:22:59.519Z,5.83
2023-04-19T20:25:26.490Z,5.40
2023-04-19T20:27:54.199Z,4.70
2023-04-19T20:30:21.151Z,5.60
2023-04-19T20:32:50.264Z,4.30
2023-04-19T20:35:17.387Z,4.20
2023-04-19T20:37:44.473Z,3.40
2023-04-19T20:40:13.930Z,4.83
2023-04-19T20:42:45.019Z,4.20
2023-04-19T20:45:12.881Z,4.80
2023-04-19T20:47:40.138Z,4.20
2023-04-19T20:50:08.540Z,4.50
2023-04-19T20:52:35.657Z,3.90
2023-04-19T20:55:02.465Z,4.33
2023-04-19T20:57:29.234Z,4.17
2023-04-19T20:59:56.036Z,4.10
2023-04-19T21:02:22.895Z,4.60
2023-04-19T21:04:49.823Z,4.20
2023-04-19T21:07:16.555Z,4.40
2023-04-19T21:09:43.337Z,4.40
2023-04-19T21:12:10.490Z,4.77
2023-04-19T21:14:37.361Z,3.90
2023-04-19T21:17:04.149Z,4.57
2023-04-19T21:19:30.919Z,4.60
2023-04-19T21:21:58.732Z,4.20
2023-04-19T21:24:25.578Z,4.60
2023-04-19T21:26:52.316Z,4.60
2023-04-19T21:29:20.055Z,4.60
2023-04-19T21:31:47.167Z,5.00
2023-04-19T21:34:14.068Z,5.67
2023-04-19T21:36:40.807Z,4.53
2023-04-19T21:39:07.997Z,4.53
2023-04-19T21:41:35.835Z,5.13
2023-04-19T21:44:02.595Z,5.37
2023-04-19T21:46:29.361Z,4.80
2023-04-19T21:48:56.307Z,4.77
2023-04-19T21:51:23.177Z,5.17
2023-04-19T21:53:49.952Z,5.03
2023-04-19T21:56:16.633Z,4.67
2023-04-19T21:58:43.305Z,4.77
2023-04-19T22:01:10.832Z,4.50
2023-04-19T22:03:37.889Z,4.33
2023-04-19T22:06:06.544Z,4.93
2023-04-19T22:08:33.953Z,4.63
2023-04-19T22:11:01.163Z,4.70
2023-04-19T22:13:28.421Z,4.30
2023-04-19T22:15:57.085Z,4.20
2023-04-19T22:18:24.110Z,4.23
2023-04-19T22:20:53.241Z,4.00
2023-04-19T22:23:19.933Z,3.93
2023-04-19T22:25:46.683Z,4.70
2023-04-19T22:28:13.553Z,3.70
2023-04-19T22:30:40.274Z,4.30
2023-04-19T22:33:07.069Z,4.40
2023-04-19T22:35:33.845Z,4.20
2023-04-19T22:38:00.648Z,3.63
2023-04-19T22:40:27.357Z,3.67
2023-04-19T22:42:54.532Z,3.80
2023-04-19T22:45:21.260Z,3.87
2023-04-19T22:47:48.033Z,3.77
2023-04-19T22:50:14.873Z,4.47
2023-04-19T22:52:42.546Z,3.83
2023-04-19T22:55:10.168Z,4.40
2023-04-19T22:57:36.906Z,3.97
2023-04-19T23:00:05.450Z,3.77
2023-04-19T23:02:32.376Z,4.63
2023-04-19T23:05:00.670Z,3.57
2023-04-19T23:07:28.779Z,3.90
2023-04-19T23:09:56.141Z,3.90
2023-04-19T23:12:24.150Z,4.30
2023-04-19T23:14:51.150Z,3.80
2023-04-19T23:17:18.211Z,4.17
2023-04-19T23:19:45.046Z,4.23
2023-04-19T23:22:11.806Z,4.13
2023-04-19T23:24:38.563Z,4.37
2023-04-19T23:27:05.706Z,4.50
2023-04-19T23:29:32.430Z,4.03
2023-04-19T23:32:00.450Z,4.73
2023-04-19T23:34:27.199Z,4.30
2023-04-19T23:36:53.934Z,4.57
2023-04-19T23:39:20.711Z,4.20
2023-04-19T23:41:47.516Z,4.57
2023-04-19T23:44:14.250Z,4.60
2023-04-19T23:46:41.112Z,4.60
2023-04-19T23:49:08.708Z,4.53
2023-04-19T23:51:36.334Z,4.10
2023-04-19T23:54:03.146Z,5.30
2023-04-19T23:56:29.819Z,5.50
2023-04-19T23:58:57.435Z,5.60
